createdAt,value
2023-10-27T00:01:49.262Z,9.24
2023-10-27T00:06:54.186Z,9.25
2023-10-27T00:11:56.043Z,9.29
2023-10-27T00:16:58.617Z,9.39
2023-10-27T00:22:00.305Z,9.49
2023-10-27T00:27:02.062Z,9.56
2023-10-27T00:32:04.160Z,9.61
2023-10-27T00:37:05.921Z,9.65
2023-10-27T00:42:08.071Z,9.71
2023-10-27T00:47:10.069Z,9.77
2023-10-27T00:52:14.137Z,9.82
2023-10-27T00:57:16.139Z,9.84
2023-10-27T01:02:23.872Z,9.85
2023-10-27T01:07:25.734Z,9.77
2023-10-27T01:12:27.409Z,9.65
2023-10-27T01:17:29.154Z,9.64
2023-10-27T01:22:35.091Z,9.56
2023-10-27T01:27:36.898Z,9.59
2023-10-27T01:32:39.300Z,9.57
2023-10-27T01:37:41.146Z,9.48
2023-10-27T01:42:42.993Z,9.46
2023-10-27T01:47:44.824Z,9.53
2023-10-27T01:52:46.975Z,9.55
2023-10-27T01:57:48.701Z,9.55
2023-10-27T02:02:53.502Z,9.59
2023-10-27T02:07:56.422Z,9.54
2023-10-27T02:12:58.132Z,9.52
2023-10-27T02:17:59.891Z,9.54
2023-10-27T02:23:01.746Z,9.53
2023-10-27T02:28:03.619Z,9.55
2023-10-27T02:33:05.419Z,9.60
2023-10-27T02:38:07.237Z,9.58
2023-10-27T02:43:10.205Z,9.59
2023-10-27T02:48:12.593Z,9.59
2023-10-27T02:53:17.237Z,9.62
2023-10-27T02:58:19.084Z,9.61
2023-10-27T03:03:20.953Z,9.62
2023-10-27T03:08:22.730Z,9.59
2023-10-27T03:13:24.475Z,9.61
2023-10-27T03:18:26.513Z,9.64
2023-10-27T03:23:28.677Z,9.67
2023-10-27T03:28:31.386Z,9.72
2023-10-27T03:33:34.605Z,9.76
2023-10-27T03:38:36.360Z,9.78
2023-10-27T03:43:38.084Z,9.79
2023-10-27T03:48:40.408Z,9.82
2023-10-27T03:53:42.260Z,9.79
2023-10-27T03:58:48.006Z,9.79
2023-10-27T04:03:50.338Z,9.78
2023-10-27T04:08:52.035Z,9.77
2023-10-27T04:13:53.662Z,9.82
2023-10-27T04:18:55.384Z,9.89
2023-10-27T04:23:57.594Z,9.87
2023-10-27T04:28:59.248Z,9.82
2023-10-27T04:34:01.422Z,9.82
2023-10-27T04:39:05.170Z,9.82
2023-10-27T04:44:07.144Z,9.86
2023-10-27T04:49:08.908Z,9.89
2023-10-27T04:54:10.609Z,9.89
2023-10-27T04:59:12.256Z,9.88
2023-10-27T05:04:14.092Z,9.89
2023-10-27T05:09:17.064Z,9.88
2023-10-27T05:14:20.245Z,9.94
2023-10-27T05:19:22.582Z,9.95
2023-10-27T05:24:30.611Z,9.95
2023-10-27T05:29:33.789Z,9.97
2023-10-27T05:34:35.610Z,9.98
2023-10-27T05:39:37.313Z,10.02
2023-10-27T05:44:41.303Z,9.99
2023-10-27T05:49:43.073Z,10.05
2023-10-27T05:54:46.515Z,10.03
2023-10-27T05:59:49.895Z,9.95
2023-10-27T06:04:52.261Z,9.93
2023-10-27T06:09:54.126Z,9.88
2023-10-27T06:14:55.813Z,9.79
2023-10-27T06:20:09.283Z,9.62
2023-10-27T06:25:15.502Z,9.55
2023-10-27T06:30:18.103Z,9.52
2023-10-27T06:35:19.933Z,9.56
2023-10-27T06:40:22.917Z,9.57
2023-10-27T06:45:24.755Z,9.56
2023-10-27T06:50:26.424Z,9.55
2023-10-27T06:55:28.223Z,9.55
2023-10-27T07:00:29.940Z,9.65
2023-10-27T07:05:31.616Z,9.65
2023-10-27T07:10:33.518Z,9.64
2023-10-27T07:15:35.260Z,9.70
2023-10-27T07:20:40.721Z,9.80
2023-10-27T07:25:42.580Z,9.89
2023-10-27T07:30:44.313Z,9.85
2023-10-27T07:35:47.656Z,9.88
2023-10-27T07:40:49.480Z,10.00
2023-10-27T07:45:51.205Z,9.99
2023-10-27T07:50:58.043Z,10.11
2023-10-27T07:55:59.845Z,10.25
2023-10-27T08:01:01.573Z,10.20
2023-10-27T08:06:08.672Z,10.39
2023-10-27T08:11:18.824Z,10.50
2023-10-27T08:16:20.559Z,10.63
2023-10-27T08:21:23.007Z,10.63
2023-10-27T08:26:24.762Z,10.62
2023-10-27T08:31:26.504Z,10.54
2023-10-27T08:36:28.531Z,10.56
2023-10-27T08:41:30.349Z,10.58
2023-10-27T08:46:33.490Z,10.56
2023-10-27T08:51:36.988Z,10.61
2023-10-27T08:56:38.679Z,10.63
2023-10-27T09:01:40.355Z,10.66
2023-10-27T09:06:43.072Z,10.71
2023-10-27T09:11:49.436Z,10.81
2023-10-27T09:16:52.260Z,10.75
2023-10-27T09:21:54.761Z,10.70
2023-10-27T09:27:00.784Z,10.67
2023-10-27T09:32:02.352Z,10.69
2023-10-27T09:37:04.126Z,10.69
2023-10-27T09:42:07.749Z,10.71
2023-10-27T09:47:29.722Z,10.76
2023-10-27T09:52:33.005Z,10.87
2023-10-27T09:57:35.608Z,11.03
2023-10-27T10:02:38.181Z,11.05
2023-10-27T10:07:53.818Z,11.10
2023-10-27T10:13:02.840Z,11.06
2023-10-27T10:18:09.542Z,11.15
2023-10-27T10:23:11.942Z,11.18
2023-10-27T10:28:17.783Z,11.25
2023-10-27T10:33:24.908Z,11.23
2023-10-27T10:38:26.555Z,11.33
2023-10-27T10:43:42.300Z,11.32
2023-10-27T10:48:46.112Z,11.28
2023-10-27T10:53:55.392Z,11.42
2023-10-27T10:58:57.639Z,11.51
2023-10-27T11:03:59.576Z,11.46
2023-10-27T11:09:01.340Z,11.45
2023-10-27T11:14:04.366Z,11.46
2023-10-27T11:19:15.789Z,11.51
2023-10-27T11:24:17.529Z,11.52
2023-10-27T11:29:19.247Z,11.37
2023-10-27T11:34:27.631Z,11.42
2023-10-27T11:39:29.715Z,11.32
2023-10-27T11:44:32.853Z,11.24
2023-10-27T11:49:34.843Z,11.17
2023-10-27T11:54:37.131Z,11.12
2023-10-27T11:59:38.864Z,11.03
2023-10-27T12:04:40.658Z,11.00
2023-10-27T12:09:42.416Z,11.01
2023-10-27T12:14:44.247Z,10.93
2023-10-27T12:19:46.270Z,10.91
2023-10-27T12:24:48.134Z,10.95
2023-10-27T12:29:50.050Z,10.97
2023-10-27T12:34:51.762Z,11.05
2023-10-27T12:39:54.603Z,11.06
2023-10-27T12:44:58.727Z,11.05
2023-10-27T12:50:01.150Z,11.03
2023-10-27T12:55:03.036Z,11.01
2023-10-27T13:00:21.907Z,11.02
2023-10-27T13:05:24.969Z,10.92
2023-10-27T13:10:26.745Z,10.77
2023-10-27T13:15:29.482Z,10.67
2023-10-27T13:20:34.766Z,10.59
2023-10-27T13:25:36.530Z,10.55
2023-10-27T13:30:38.478Z,10.38
2023-10-27T13:35:40.232Z,10.31
2023-10-27T13:40:41.934Z,10.26
2023-10-27T13:45:43.712Z,10.18
2023-10-27T13:50:45.391Z,10.16
2023-10-27T13:55:49.952Z,10.16
2023-10-27T14:00:52.120Z,10.26
2023-10-27T14:05:53.878Z,10.31
2023-10-27T14:10:55.617Z,10.32
2023-10-27T14:15:57.412Z,10.40
2023-10-27T14:21:00.538Z,10.28
2023-10-27T14:26:02.512Z,10.23
2023-10-27T14:31:07.766Z,10.22
2023-10-27T14:36:10.481Z,10.17
2023-10-27T14:41:12.436Z,10.16
2023-10-27T14:46:16.232Z,10.18
2023-10-27T14:51:20.378Z,10.19
2023-10-27T14:56:22.148Z,10.25
2023-10-27T15:01:26.228Z,10.29
2023-10-27T15:06:28.080Z,10.30
2023-10-27T15:11:29.770Z,10.28
2023-10-27T15:16:34.122Z,10.24
2023-10-27T15:21:36.025Z,10.23
2023-10-27T15:26:38.096Z,10.23
2023-10-27T15:31:40.244Z,10.19
2023-10-27T15:36:42.047Z,10.12
2023-10-27T15:41:43.813Z,10.09
2023-10-27T15:46:46.994Z,10.03
2023-10-27T15:51:49.694Z,10.02
2023-10-27T15:56:52.011Z,9.99
2023-10-27T16:01:53.789Z,9.96
2023-10-27T16:06:59.213Z,9.97
2023-10-27T16:12:01.606Z,9.95
2023-10-27T16:17:03.574Z,9.94
2023-10-27T16:22:05.375Z,9.90
2023-10-27T16:27:09.170Z,9.85
2023-10-27T16:32:10.833Z,9.75
2023-10-27T16:37:14.127Z,9.63
2023-10-27T16:42:18.240Z,9.60
2023-10-27T16:47:19.889Z,9.60
2023-10-27T16:52:21.615Z,9.62
2023-10-27T16:57:23.784Z,9.63
2023-10-27T17:02:26.739Z,9.64
2023-10-27T17:07:28.459Z,9.63
2023-10-27T17:12:30.775Z,9.64
2023-10-27T17:17:32.552Z,9.63
2023-10-27T17:22:34.248Z,9.63
2023-10-27T17:27:35.949Z,9.61
2023-10-27T17:32:39.827Z,9.61
2023-10-27T17:37:41.720Z,9.60
2023-10-27T17:42:43.431Z,9.58
2023-10-27T17:47:49.638Z,9.56
2023-10-27T17:52:51.523Z,9.56
2023-10-27T17:57:53.916Z,9.54
2023-10-27T18:02:55.632Z,9.55
2023-10-27T18:07:58.711Z,9.55
2023-10-27T18:13:00.934Z,9.51
2023-10-27T18:18:04.150Z,9.54
2023-10-27T18:23:06.736Z,9.56
2023-10-27T18:28:08.383Z,9.57
2023-10-27T18:33:10.176Z,9.58
2023-10-27T18:38:14.134Z,9.60
2023-10-27T18:43:15.796Z,9.60
2023-10-27T18:48:17.518Z,9.61
2023-10-27T18:53:19.202Z,9.64
2023-10-27T18:58:21.682Z,9.62
2023-10-27T19:03:30.754Z,9.63
2023-10-27T19:08:33.668Z,9.62
2023-10-27T19:13:36.553Z,9.62
2023-10-27T19:18:40.194Z,9.66
2023-10-27T19:23:47.303Z,9.67
2023-10-27T19:28:51.227Z,9.69
2023-10-27T19:33:53.440Z,9.71
2023-10-27T19:38:55.941Z,9.69
2023-10-27T19:43:57.799Z,9.64
2023-10-27T19:49:00.668Z,9.62
2023-10-27T19:54:02.403Z,9.62
2023-10-27T19:59:04.310Z,9.65
2023-10-27T20:04:08.045Z,9.67
2023-10-27T20:09:12.828Z,9.69
2023-10-27T20:14:14.603Z,9.71
2023-10-27T20:19:16.319Z,9.72
2023-10-27T20:24:21.175Z,9.73
2023-10-27T20:29:23.423Z,9.72
2023-10-27T20:34:26.012Z,9.73
2023-10-27T20:39:29.317Z,9.71
2023-10-27T20:44:31.055Z,9.72
2023-10-27T20:49:32.895Z,9.71
2023-10-27T20:54:34.614Z,9.70
2023-10-27T20:59:36.328Z,9.66
2023-10-27T21:04:38.102Z,9.61
2023-10-27T21:09:40.903Z,9.58
2023-10-27T21:14:42.606Z,9.58
2023-10-27T21:19:45.206Z,9.56
2023-10-27T21:24:47.373Z,9.59
2023-10-27T21:29:55.575Z,9.66
2023-10-27T21:34:57.324Z,9.73
2023-10-27T21:39:59.148Z,9.72
2023-10-27T21:45:00.814Z,9.74
2023-10-27T21:50:02.535Z,9.75
2023-10-27T21:55:04.796Z,9.76
2023-10-27T22:00:29.752Z,9.81
2023-10-27T22:05:31.867Z,9.82
2023-10-27T22:10:33.742Z,9.83
2023-10-27T22:15:36.051Z,9.85
2023-10-27T22:20:37.813Z,9.86
2023-10-27T22:25:44.630Z,9.89
2023-10-27T22:30:46.600Z,9.92
2023-10-27T22:35:48.298Z,9.93
2023-10-27T22:40:51.300Z,9.92
2023-10-27T22:45:54.520Z,9.88
2023-10-27T22:50:56.486Z,9.88
2023-10-27T22:55:58.252Z,9.96
2023-10-27T23:01:00.811Z,10.06
2023-10-27T23:06:07.597Z,10.07
2023-10-27T23:11:10.950Z,10.08
2023-10-27T23:16:13.662Z,10.15
2023-10-27T23:21:15.749Z,10.12
2023-10-27T23:26:17.453Z,10.11
2023-10-27T23:31:19.686Z,10.07
2023-10-27T23:36:21.658Z,10.05
2023-10-27T23:41:24.529Z,10.02
2023-10-27T23:46:26.258Z,9.98
2023-10-27T23:51:28.760Z,9.91
2023-10-27T23:56:30.719Z,9.77
